sensor_id;sensor_type;location;lat;lon;timestamp;pressure;altitude;pressure_sealevel;temperature;humidity
78839;BME280;68405;47.190;27.558;2023-08-20T00:01:59;100083.63;;;22.22;46.35
78839;BME280;68405;47.190;27.558;2023-08-20T00:04:35;100085.75;;;22.17;46.31
78839;BME280;68405;47.190;27.558;2023-08-20T00:07:08;100085.98;;;22.12;46.29
78839;BME280;68405;47.190;27.558;2023-08-20T00:09:40;100086.33;;;22.07;46.28
78839;BME280;68405;47.190;27.558;2023-08-20T00:12:12;100087.91;;;22.03;47.15
78839;BME280;68405;47.190;27.558;2023-08-20T00:14:58;100085.64;;;21.99;46.60
78839;BME280;68405;47.190;27.558;2023-08-20T00:17:36;100086.42;;;21.93;47.37
78839;BME280;68405;47.190;27.558;2023-08-20T00:20:11;100086.23;;;21.89;47.37
78839;BME280;68405;47.190;27.558;2023-08-20T00:22:44;100081.35;;;21.83;47.34
78839;BME280;68405;47.190;27.558;2023-08-20T00:25:18;100081.36;;;21.79;47.76
78839;BME280;68405;47.190;27.558;2023-08-20T00:27:50;100076.64;;;21.73;47.52
78839;BME280;68405;47.190;27.558;2023-08-20T00:30:21;100076.14;;;21.69;47.69
78839;BME280;68405;47.190;27.558;2023-08-20T00:32:53;100074.93;;;21.64;47.71
78839;BME280;68405;47.190;27.558;2023-08-20T00:35:26;100072.48;;;21.58;47.96
78839;BME280;68405;47.190;27.558;2023-08-20T00:37:57;100069.84;;;21.53;48.14
78839;BME280;68405;47.190;27.558;2023-08-20T00:40:29;100067.70;;;21.49;48.13
78839;BME280;68405;47.190;27.558;2023-08-20T00:43:01;100067.64;;;21.45;48.23
78839;BME280;68405;47.190;27.558;2023-08-20T00:45:33;100069.34;;;21.41;48.21
78839;BME280;68405;47.190;27.558;2023-08-20T00:48:07;100070.15;;;21.38;48.34
78839;BME280;68405;47.190;27.558;2023-08-20T00:50:39;100073.61;;;21.36;51.59
78839;BME280;68405;47.190;27.558;2023-08-20T00:53:13;100075.15;;;21.33;50.11
78839;BME280;68405;47.190;27.558;2023-08-20T00:55:45;100075.55;;;21.30;49.32
78839;BME280;68405;47.190;27.558;2023-08-20T00:58:17;100074.17;;;21.27;49.13
78839;BME280;68405;47.190;27.558;2023-08-20T01:00:49;100071.01;;;21.22;49.40
78839;BME280;68405;47.190;27.558;2023-08-20T01:03:21;100071.56;;;21.19;49.51
78839;BME280;68405;47.190;27.558;2023-08-20T01:05:58;100071.27;;;21.16;49.67
78839;BME280;68405;47.190;27.558;2023-08-20T01:08:38;100069.59;;;21.13;49.65
78839;BME280;68405;47.190;27.558;2023-08-20T01:11:17;100069.79;;;21.10;52.01
78839;BME280;68405;47.190;27.558;2023-08-20T01:13:51;100067.09;;;21.08;52.09
78839;BME280;68405;47.190;27.558;2023-08-20T01:16:25;100068.61;;;21.07;50.87
78839;BME280;68405;47.190;27.558;2023-08-20T01:18:56;100063.45;;;21.05;50.20
78839;BME280;68405;47.190;27.558;2023-08-20T01:21:35;100062.04;;;21.07;54.69
78839;BME280;68405;47.190;27.558;2023-08-20T01:24:20;100062.73;;;21.08;51.89
78839;BME280;68405;47.190;27.558;2023-08-20T01:27:15;100063.52;;;21.06;52.04
78839;BME280;68405;47.190;27.558;2023-08-20T01:29:50;100064.96;;;21.04;50.89
78839;BME280;68405;47.190;27.558;2023-08-20T01:32:23;100062.41;;;21.02;51.58
78839;BME280;68405;47.190;27.558;2023-08-20T01:34:55;100059.73;;;21.01;50.97
78839;BME280;68405;47.190;27.558;2023-08-20T01:37:27;100062.38;;;20.99;51.04
78839;BME280;68405;47.190;27.558;2023-08-20T01:39:59;100066.31;;;20.95;51.61
78839;BME280;68405;47.190;27.558;2023-08-20T01:42:31;100068.71;;;20.91;51.79
78839;BME280;68405;47.190;27.558;2023-08-20T01:45:03;100071.14;;;20.87;55.01
78839;BME280;68405;47.190;27.558;2023-08-20T01:47:35;100071.42;;;20.81;53.26
78839;BME280;68405;47.190;27.558;2023-08-20T01:50:08;100073.84;;;20.74;54.84
78839;BME280;68405;47.190;27.558;2023-08-20T01:52:40;100076.02;;;20.66;55.63
78839;BME280;68405;47.190;27.558;2023-08-20T01:55:12;100072.92;;;20.57;55.28
78839;BME280;68405;47.190;27.558;2023-08-20T01:57:44;100073.98;;;20.51;53.90
78839;BME280;68405;47.190;27.558;2023-08-20T02:00:16;100074.20;;;20.45;53.74
78839;BME280;68405;47.190;27.558;2023-08-20T02:02:48;100073.05;;;20.41;55.12
78839;BME280;68405;47.190;27.558;2023-08-20T02:05:19;100075.28;;;20.37;54.55
78839;BME280;68405;47.190;27.558;2023-08-20T02:07:51;100073.23;;;20.34;54.72
78839;BME280;68405;47.190;27.558;2023-08-20T02:10:22;100073.27;;;20.31;54.78
78839;BME280;68405;47.190;27.558;2023-08-20T02:12:54;100075.41;;;20.28;53.87
78839;BME280;68405;47.190;27.558;2023-08-20T02:15:25;100070.81;;;20.26;53.73
78839;BME280;68405;47.190;27.558;2023-08-20T02:17:57;100072.85;;;20.25;54.52
78839;BME280;68405;47.190;27.558;2023-08-20T02:20:31;100075.02;;;20.24;54.51
78839;BME280;68405;47.190;27.558;2023-08-20T02:23:02;100074.77;;;20.22;55.13
78839;BME280;68405;47.190;27.558;2023-08-20T02:25:34;100076.11;;;20.21;55.07
78839;BME280;68405;47.190;27.558;2023-08-20T02:28:05;100077.96;;;20.20;56.92
78839;BME280;68405;47.190;27.558;2023-08-20T02:30:42;100079.07;;;20.19;56.76
78839;BME280;68405;47.190;27.558;2023-08-20T02:33:14;100082.80;;;20.16;55.19
78839;BME280;68405;47.190;27.558;2023-08-20T02:35:46;100083.67;;;20.14;55.04
78839;BME280;68405;47.190;27.558;2023-08-20T02:38:18;100086.48;;;20.11;55.55
78839;BME280;68405;47.190;27.558;2023-08-20T02:40:50;100090.33;;;20.09;55.48
78839;BME280;68405;47.190;27.558;2023-08-20T02:43:21;100087.16;;;20.07;55.44
78839;BME280;68405;47.190;27.558;2023-08-20T02:45:53;100085.77;;;20.04;55.85
78839;BME280;68405;47.190;27.558;2023-08-20T02:48:25;100087.70;;;20.02;56.73
78839;BME280;68405;47.190;27.558;2023-08-20T02:50:57;100101.17;;;20.00;57.46
78839;BME280;68405;47.190;27.558;2023-08-20T02:53:29;100097.16;;;19.97;57.34
78839;BME280;68405;47.190;27.558;2023-08-20T02:56:00;100093.25;;;19.93;56.66
78839;BME280;68405;47.190;27.558;2023-08-20T02:58:33;100095.58;;;19.89;56.46
78839;BME280;68405;47.190;27.558;2023-08-20T03:01:04;100094.91;;;19.87;57.54
78839;BME280;68405;47.190;27.558;2023-08-20T03:03:37;100100.84;;;19.85;58.48
78839;BME280;68405;47.190;27.558;2023-08-20T03:06:12;100095.52;;;19.83;59.36
78839;BME280;68405;47.190;27.558;2023-08-20T03:08:45;100095.63;;;19.81;60.39
78839;BME280;68405;47.190;27.558;2023-08-20T03:11:19;100091.75;;;19.78;59.54
78839;BME280;68405;47.190;27.558;2023-08-20T03:13:51;100089.77;;;19.76;58.47
78839;BME280;68405;47.190;27.558;2023-08-20T03:16:24;100092.36;;;19.75;58.25
78839;BME280;68405;47.190;27.558;2023-08-20T03:18:56;100095.95;;;19.74;58.14
78839;BME280;68405;47.190;27.558;2023-08-20T03:21:28;100096.76;;;19.75;59.42
78839;BME280;68405;47.190;27.558;2023-08-20T03:23:59;100102.46;;;19.76;59.61
78839;BME280;68405;47.190;27.558;2023-08-20T03:26:31;100099.65;;;19.79;59.22
78839;BME280;68405;47.190;27.558;2023-08-20T03:29:03;100097.44;;;19.83;59.01
78839;BME280;68405;47.190;27.558;2023-08-20T03:31:35;100100.23;;;19.89;61.78
78839;BME280;68405;47.190;27.558;2023-08-20T03:34:07;100097.52;;;19.95;60.82
78839;BME280;68405;47.190;27.558;2023-08-20T03:36:40;100097.60;;;20.01;60.45
78839;BME280;68405;47.190;27.558;2023-08-20T03:39:12;100094.94;;;20.09;60.24
78839;BME280;68405;47.190;27.558;2023-08-20T03:41:44;100098.94;;;20.17;60.59
78839;BME280;68405;47.190;27.558;2023-08-20T03:44:16;100098.83;;;20.26;60.23
78839;BME280;68405;47.190;27.558;2023-08-20T03:46:48;100100.75;;;20.36;61.24
78839;BME280;68405;47.190;27.558;2023-08-20T03:49:20;100100.19;;;20.47;59.71
78839;BME280;68405;47.190;27.558;2023-08-20T03:51:52;100104.83;;;20.58;60.76
78839;BME280;68405;47.190;27.558;2023-08-20T03:54:24;100103.75;;;20.68;60.11
78839;BME280;68405;47.190;27.558;2023-08-20T03:56:56;100098.44;;;20.79;60.34
78839;BME280;68405;47.190;27.558;2023-08-20T03:59:28;100100.51;;;20.91;58.99
78839;BME280;68405;47.190;27.558;2023-08-20T04:02:00;100100.05;;;21.07;58.75
78839;BME280;68405;47.190;27.558;2023-08-20T04:04:32;100102.23;;;21.25;58.32
78839;BME280;68405;47.190;27.558;2023-08-20T04:07:04;100103.14;;;21.43;58.10
78839;BME280;68405;47.190;27.558;2023-08-20T04:09:36;100101.63;;;21.63;58.74
78839;BME280;68405;47.190;27.558;2023-08-20T04:12:09;100102.09;;;21.85;57.99
78839;BME280;68405;47.190;27.558;2023-08-20T04:14:41;100102.05;;;22.04;57.48
78839;BME280;68405;47.190;27.558;2023-08-20T04:17:13;100106.28;;;22.15;57.49
78839;BME280;68405;47.190;27.558;2023-08-20T04:19:45;100107.42;;;22.32;56.50
78839;BME280;68405;47.190;27.558;2023-08-20T04:22:16;100109.71;;;22.48;56.48
78839;BME280;68405;47.190;27.558;2023-08-20T04:24:48;100104.27;;;22.69;56.43
78839;BME280;68405;47.190;27.558;2023-08-20T04:27:20;100104.14;;;22.97;56.05
78839;BME280;68405;47.190;27.558;2023-08-20T04:29:53;100104.86;;;23.56;54.47
78839;BME280;68405;47.190;27.558;2023-08-20T04:32:24;100105.44;;;24.44;52.63
78839;BME280;68405;47.190;27.558;2023-08-20T04:34:56;100105.21;;;25.33;49.35
78839;BME280;68405;47.190;27.558;2023-08-20T04:37:29;100103.61;;;26.20;47.30
78839;BME280;68405;47.190;27.558;2023-08-20T04:40:01;100107.05;;;27.03;45.08
78839;BME280;68405;47.190;27.558;2023-08-20T04:42:34;100102.59;;;27.77;43.23
78839;BME280;68405;47.190;27.558;2023-08-20T04:45:08;100105.44;;;28.44;41.56
78839;BME280;68405;47.190;27.558;2023-08-20T04:47:40;100106.27;;;29.17;40.58
78839;BME280;68405;47.190;27.558;2023-08-20T04:50:12;100111.02;;;29.76;38.43
78839;BME280;68405;47.190;27.558;2023-08-20T04:52:44;100105.27;;;30.17;38.27
78839;BME280;68405;47.190;27.558;2023-08-20T04:55:16;100108.02;;;30.74;37.27
78839;BME280;68405;47.190;27.558;2023-08-20T04:57:48;100106.83;;;31.33;35.72
78839;BME280;68405;47.190;27.558;2023-08-20T05:00:19;100107.13;;;32.13;34.31
78839;BME280;68405;47.190;27.558;2023-08-20T05:02:51;100107.17;;;32.89;34.13
78839;BME280;68405;47.190;27.558;2023-08-20T05:05:23;100111.77;;;33.44;31.46
78839;BME280;68405;47.190;27.558;2023-08-20T05:07:55;100108.63;;;33.99;30.72
78839;BME280;68405;47.190;27.558;2023-08-20T05:10:26;100108.89;;;34.65;30.44
78839;BME280;68405;47.190;27.558;2023-08-20T05:12:58;100107.11;;;35.07;28.87
78839;BME280;68405;47.190;27.558;2023-08-20T05:15:29;100108.17;;;35.81;27.74
78839;BME280;68405;47.190;27.558;2023-08-20T05:18:01;100109.94;;;36.59;27.80
78839;BME280;68405;47.190;27.558;2023-08-20T05:20:33;100110.42;;;37.16;25.72
78839;BME280;68405;47.190;27.558;2023-08-20T05:23:05;100114.77;;;37.83;24.79
78839;BME280;68405;47.190;27.558;2023-08-20T05:25:37;100114.75;;;38.56;23.62
78839;BME280;68405;47.190;27.558;2023-08-20T05:28:08;100113.05;;;39.34;22.95
78839;BME280;68405;47.190;27.558;2023-08-20T05:30:40;100115.79;;;39.87;22.10
78839;BME280;68405;47.190;27.558;2023-08-20T05:33:11;100118.71;;;39.86;21.67
78839;BME280;68405;47.190;27.558;2023-08-20T05:35:45;100117.44;;;40.20;21.18
78839;BME280;68405;47.190;27.558;2023-08-20T05:38:17;100116.00;;;40.40;21.27
78839;BME280;68405;47.190;27.558;2023-08-20T05:40:48;100116.17;;;40.88;20.03
78839;BME280;68405;47.190;27.558;2023-08-20T05:43:20;100116.30;;;41.27;19.72
78839;BME280;68405;47.190;27.558;2023-08-20T05:45:51;100115.55;;;41.55;19.73
78839;BME280;68405;47.190;27.558;2023-08-20T05:48:23;100118.17;;;42.14;19.33
78839;BME280;68405;47.190;27.558;2023-08-20T05:50:55;100125.52;;;42.80;18.16
78839;BME280;68405;47.190;27.558;2023-08-20T05:53:26;100126.21;;;43.25;17.52
78839;BME280;68405;47.190;27.558;2023-08-20T05:55:58;100123.76;;;44.01;17.11
78839;BME280;68405;47.190;27.558;2023-08-20T05:58:30;100119.96;;;44.21;16.93
78839;BME280;68405;47.190;27.558;2023-08-20T06:01:01;100124.20;;;44.65;16.61
78839;BME280;68405;47.190;27.558;2023-08-20T06:03:33;100128.88;;;44.86;15.78
78839;BME280;68405;47.190;27.558;2023-08-20T06:06:05;100133.16;;;45.19;15.49
78839;BME280;68405;47.190;27.558;2023-08-20T06:08:36;100130.34;;;45.43;15.40
78839;BME280;68405;47.190;27.558;2023-08-20T06:11:08;100123.88;;;45.90;15.02
78839;BME280;68405;47.190;27.558;2023-08-20T06:13:40;100123.23;;;46.42;14.68
78839;BME280;68405;47.190;27.558;2023-08-20T06:16:11;100125.36;;;46.69;13.96
78839;BME280;68405;47.190;27.558;2023-08-20T06:18:43;100129.04;;;47.04;13.97
78839;BME280;68405;47.190;27.558;2023-08-20T06:21:14;100130.64;;;47.77;13.23
78839;BME280;68405;47.190;27.558;2023-08-20T06:23:46;100132.13;;;48.32;12.99
78839;BME280;68405;47.190;27.558;2023-08-20T06:26:18;100134.08;;;48.83;12.70
78839;BME280;68405;47.190;27.558;2023-08-20T06:28:50;100133.14;;;49.25;12.06
78839;BME280;68405;47.190;27.558;2023-08-20T06:31:22;100131.15;;;49.34;11.94
78839;BME280;68405;47.190;27.558;2023-08-20T06:33:54;100129.66;;;49.67;11.68
78839;BME280;68405;47.190;27.558;2023-08-20T06:36:26;100130.46;;;50.03;11.46
78839;BME280;68405;47.190;27.558;2023-08-20T06:38:57;100129.59;;;50.70;10.89
78839;BME280;68405;47.190;27.558;2023-08-20T06:41:29;100127.84;;;50.83;10.91
78839;BME280;68405;47.190;27.558;2023-08-20T06:44:01;100127.80;;;51.33;10.69
78839;BME280;68405;47.190;27.558;2023-08-20T06:46:33;100129.35;;;50.93;10.81
78839;BME280;68405;47.190;27.558;2023-08-20T06:49:05;100131.58;;;51.29;10.66
78839;BME280;68405;47.190;27.558;2023-08-20T06:51:35;100129.29;;;51.79;10.25
78839;BME280;68405;47.190;27.558;2023-08-20T06:54:08;100129.15;;;52.19;9.90
78839;BME280;68405;47.190;27.558;2023-08-20T06:56:39;100124.16;;;52.56;9.89
78839;BME280;68405;47.190;27.558;2023-08-20T06:59:11;100123.33;;;52.83;9.83
78839;BME280;68405;47.190;27.558;2023-08-20T07:01:43;100121.85;;;53.50;9.32
78839;BME280;68405;47.190;27.558;2023-08-20T07:04:14;100124.50;;;53.79;8.90
78839;BME280;68405;47.190;27.558;2023-08-20T07:06:46;100128.49;;;54.28;8.66
78839;BME280;68405;47.190;27.558;2023-08-20T07:09:18;100133.34;;;54.71;8.21
78839;BME280;68405;47.190;27.558;2023-08-20T07:11:49;100131.77;;;55.09;8.04
78839;BME280;68405;47.190;27.558;2023-08-20T07:14:21;100129.98;;;54.61;8.31
78839;BME280;68405;47.190;27.558;2023-08-20T07:16:53;100129.75;;;55.31;7.61
78839;BME280;68405;47.190;27.558;2023-08-20T07:19:25;100134.14;;;55.59;7.69
78839;BME280;68405;47.190;27.558;2023-08-20T07:21:57;100130.52;;;55.12;7.56
78839;BME280;68405;47.190;27.558;2023-08-20T07:24:29;100127.71;;;55.24;7.67
78839;BME280;68405;47.190;27.558;2023-08-20T07:27:05;100126.58;;;55.54;7.57
78839;BME280;68405;47.190;27.558;2023-08-20T07:29:42;100126.85;;;56.07;7.16
78839;BME280;68405;47.190;27.558;2023-08-20T07:32:12;100128.09;;;56.48;7.20
78839;BME280;68405;47.190;27.558;2023-08-20T07:34:44;100123.42;;;56.97;6.66
78839;BME280;68405;47.190;27.558;2023-08-20T07:37:17;100123.14;;;57.33;6.53
78839;BME280;68405;47.190;27.558;2023-08-20T07:39:48;100121.66;;;56.95;6.58
78839;BME280;68405;47.190;27.558;2023-08-20T07:42:20;100119.17;;;57.20;6.45
78839;BME280;68405;47.190;27.558;2023-08-20T07:44:52;100118.05;;;57.75;6.40
78839;BME280;68405;47.190;27.558;2023-08-20T07:47:24;100113.69;;;57.88;6.26
78839;BME280;68405;47.190;27.558;2023-08-20T07:49:55;100115.67;;;58.45;6.35
78839;BME280;68405;47.190;27.558;2023-08-20T07:52:27;100112.55;;;58.29;6.57
78839;BME280;68405;47.190;27.558;2023-08-20T07:54:59;100112.42;;;58.35;6.24
78839;BME280;68405;47.190;27.558;2023-08-20T07:57:31;100111.45;;;58.56;5.94
78839;BME280;68405;47.190;27.558;2023-08-20T08:00:04;100105.52;;;58.10;6.09
78839;BME280;68405;47.190;27.558;2023-08-20T08:02:36;100104.58;;;57.71;6.38
78839;BME280;68405;47.190;27.558;2023-08-20T08:05:07;100104.23;;;58.25;5.98
78839;BME280;68405;47.190;27.558;2023-08-20T08:07:39;100102.08;;;57.78;6.16
78839;BME280;68405;47.190;27.558;2023-08-20T08:10:10;100098.41;;;57.51;6.22
78839;BME280;68405;47.190;27.558;2023-08-20T08:12:41;100097.42;;;57.12;6.25
78839;BME280;68405;47.190;27.558;2023-08-20T08:15:13;100096.88;;;57.60;6.26
78839;BME280;68405;47.190;27.558;2023-08-20T08:17:45;100099.27;;;57.30;6.32
78839;BME280;68405;47.190;27.558;2023-08-20T08:20:17;100100.24;;;57.46;6.30
78839;BME280;68405;47.190;27.558;2023-08-20T08:22:49;100103.12;;;57.07;6.52
78839;BME280;68405;47.190;27.558;2023-08-20T08:25:21;100104.23;;;56.96;6.32
78839;BME280;68405;47.190;27.558;2023-08-20T08:27:53;100103.34;;;57.64;6.43
78839;BME280;68405;47.190;27.558;2023-08-20T08:30:25;100099.97;;;57.62;6.56
78839;BME280;68405;47.190;27.558;2023-08-20T08:32:58;100098.39;;;57.97;6.19
78839;BME280;68405;47.190;27.558;2023-08-20T08:35:30;100091.14;;;57.83;6.07
78839;BME280;68405;47.190;27.558;2023-08-20T08:38:02;100093.23;;;58.26;5.63
78839;BME280;68405;47.190;27.558;2023-08-20T08:40:35;100096.41;;;58.31;5.79
78839;BME280;68405;47.190;27.558;2023-08-20T08:43:05;100096.20;;;58.51;5.80
78839;BME280;68405;47.190;27.558;2023-08-20T08:45:37;100093.36;;;57.74;6.02
78839;BME280;68405;47.190;27.558;2023-08-20T08:48:08;100091.33;;;57.88;5.87
78839;BME280;68405;47.190;27.558;2023-08-20T08:50:40;100090.20;;;57.99;5.68
78839;BME280;68405;47.190;27.558;2023-08-20T08:53:12;100088.52;;;58.25;5.68
78839;BME280;68405;47.190;27.558;2023-08-20T08:55:42;100086.36;;;58.35;5.50
78839;BME280;68405;47.190;27.558;2023-08-20T08:58:14;100085.42;;;57.44;6.38
78839;BME280;68405;47.190;27.558;2023-08-20T09:00:46;100081.58;;;57.90;6.29
78839;BME280;68405;47.190;27.558;2023-08-20T09:03:19;100078.81;;;54.86;7.54
78839;BME280;68405;47.190;27.558;2023-08-20T09:05:54;100071.77;;;53.04;8.43
78839;BME280;68405;47.190;27.558;2023-08-20T09:08:28;100067.00;;;54.29;8.18
78839;BME280;68405;47.190;27.558;2023-08-20T09:11:01;100061.19;;;55.22;7.73
78839;BME280;68405;47.190;27.558;2023-08-20T09:13:37;100062.31;;;56.48;7.13
78839;BME280;68405;47.190;27.558;2023-08-20T09:16:11;100060.70;;;55.99;6.54
78839;BME280;68405;47.190;27.558;2023-08-20T09:18:44;100054.65;;;54.48;6.48
78839;BME280;68405;47.190;27.558;2023-08-20T09:21:16;100052.91;;;54.72;6.95
78839;BME280;68405;47.190;27.558;2023-08-20T09:23:48;100055.91;;;55.82;6.88
78839;BME280;68405;47.190;27.558;2023-08-20T09:26:20;100053.81;;;55.49;6.76
78839;BME280;68405;47.190;27.558;2023-08-20T09:28:54;100053.57;;;55.71;6.82
78839;BME280;68405;47.190;27.558;2023-08-20T09:31:38;100051.65;;;55.84;6.54
78839;BME280;68405;47.190;27.558;2023-08-20T09:34:13;100051.35;;;56.74;6.07
78839;BME280;68405;47.190;27.558;2023-08-20T09:36:45;100051.30;;;57.26;5.88
78839;BME280;68405;47.190;27.558;2023-08-20T09:39:17;100045.15;;;57.30;5.49
78839;BME280;68405;47.190;27.558;2023-08-20T09:41:49;100044.94;;;57.53;5.44
78839;BME280;68405;47.190;27.558;2023-08-20T09:44:21;100046.64;;;57.22;5.77
78839;BME280;68405;47.190;27.558;2023-08-20T09:46:54;100048.52;;;56.21;6.22
78839;BME280;68405;47.190;27.558;2023-08-20T09:49:31;100045.61;;;56.51;6.42
78839;BME280;68405;47.190;27.558;2023-08-20T09:52:06;100039.45;;;55.71;6.58
78839;BME280;68405;47.190;27.558;2023-08-20T09:54:47;100038.30;;;53.45;8.14
78839;BME280;68405;47.190;27.558;2023-08-20T09:57:30;100038.70;;;53.93;8.15
78839;BME280;68405;47.190;27.558;2023-08-20T10:00:05;100038.77;;;51.26;9.21
78839;BME280;68405;47.190;27.558;2023-08-20T10:02:40;100037.30;;;50.09;10.11
78839;BME280;68405;47.190;27.558;2023-08-20T10:05:13;100028.92;;;48.65;10.71
78839;BME280;68405;47.190;27.558;2023-08-20T10:07:47;100028.35;;;48.69;10.85
78839;BME280;68405;47.190;27.558;2023-08-20T10:10:19;100032.84;;;46.29;13.05
78839;BME280;68405;47.190;27.558;2023-08-20T10:12:51;100029.84;;;45.58;13.96
78839;BME280;68405;47.190;27.558;2023-08-20T10:15:23;100027.12;;;45.17;14.12
78839;BME280;68405;47.190;27.558;2023-08-20T10:17:59;100024.59;;;46.30;12.78
78839;BME280;68405;47.190;27.558;2023-08-20T10:20:33;100020.41;;;46.94;11.92
78839;BME280;68405;47.190;27.558;2023-08-20T10:23:06;100020.31;;;49.18;10.84
78839;BME280;68405;47.190;27.558;2023-08-20T10:25:43;100019.69;;;50.67;10.26
78839;BME280;68405;47.190;27.558;2023-08-20T10:28:27;100020.45;;;51.24;9.48
78839;BME280;68405;47.190;27.558;2023-08-20T10:31:08;100018.12;;;51.72;8.96
78839;BME280;68405;47.190;27.558;2023-08-20T10:33:50;100014.98;;;51.76;8.59
78839;BME280;68405;47.190;27.558;2023-08-20T10:36:26;100015.60;;;51.65;8.77
78839;BME280;68405;47.190;27.558;2023-08-20T10:39:05;100016.11;;;51.78;8.64
78839;BME280;68405;47.190;27.558;2023-08-20T10:41:37;100016.13;;;51.75;8.58
78839;BME280;68405;47.190;27.558;2023-08-20T10:44:07;100007.86;;;52.28;8.26
78839;BME280;68405;47.190;27.558;2023-08-20T10:46:51;100006.83;;;51.99;8.21
78839;BME280;68405;47.190;27.558;2023-08-20T10:49:23;100005.35;;;50.92;8.79
78839;BME280;68405;47.190;27.558;2023-08-20T10:51:54;100002.22;;;50.06;9.26
78839;BME280;68405;47.190;27.558;2023-08-20T10:54:27;99997.91;;;50.49;9.20
78839;BME280;68405;47.190;27.558;2023-08-20T10:57:00;99997.40;;;50.66;8.88
78839;BME280;68405;47.190;27.558;2023-08-20T10:59:32;99995.83;;;50.72;8.99
78839;BME280;68405;47.190;27.558;2023-08-20T11:02:05;99995.59;;;50.68;9.30
78839;BME280;68405;47.190;27.558;2023-08-20T11:04:41;99996.77;;;50.17;9.54
78839;BME280;68405;47.190;27.558;2023-08-20T11:07:19;99994.20;;;50.25;9.51
78839;BME280;68405;47.190;27.558;2023-08-20T11:09:52;99991.95;;;50.17;9.58
78839;BME280;68405;47.190;27.558;2023-08-20T11:12:23;99987.45;;;49.93;9.73
78839;BME280;68405;47.190;27.558;2023-08-20T11:15:02;99983.78;;;50.01;9.62
78839;BME280;68405;47.190;27.558;2023-08-20T11:17:34;99972.08;;;49.59;10.02
78839;BME280;68405;47.190;27.558;2023-08-20T11:20:07;99968.88;;;49.70;9.75
78839;BME280;68405;47.190;27.558;2023-08-20T11:22:39;99969.77;;;49.29;9.75
78839;BME280;68405;47.190;27.558;2023-08-20T11:25:13;99965.15;;;49.24;9.78
78839;BME280;68405;47.190;27.558;2023-08-20T11:27:45;99967.13;;;49.28;10.05
78839;BME280;68405;47.190;27.558;2023-08-20T11:30:17;99965.85;;;48.90;10.23
78839;BME280;68405;47.190;27.558;2023-08-20T11:32:49;99965.95;;;48.70;10.62
78839;BME280;68405;47.190;27.558;2023-08-20T11:35:23;99961.80;;;48.73;10.97
78839;BME280;68405;47.190;27.558;2023-08-20T11:37:55;99960.48;;;48.48;11.29
78839;BME280;68405;47.190;27.558;2023-08-20T11:40:27;99960.45;;;48.05;11.66
78839;BME280;68405;47.190;27.558;2023-08-20T11:42:59;99953.31;;;47.61;11.61
78839;BME280;68405;47.190;27.558;2023-08-20T11:45:32;99949.05;;;47.87;11.63
78839;BME280;68405;47.190;27.558;2023-08-20T11:48:04;99949.23;;;47.48;12.20
78839;BME280;68405;47.190;27.558;2023-08-20T11:50:40;99951.21;;;46.31;13.09
78839;BME280;68405;47.190;27.558;2023-08-20T11:53:12;99948.88;;;44.91;13.74
78839;BME280;68405;47.190;27.558;2023-08-20T11:55:44;99946.96;;;45.19;13.57
78839;BME280;68405;47.190;27.558;2023-08-20T11:58:18;99940.27;;;45.59;13.13
78839;BME280;68405;47.190;27.558;2023-08-20T12:00:51;99938.18;;;45.13;13.79
78839;BME280;68405;47.190;27.558;2023-08-20T12:03:23;99936.41;;;44.75;13.47
78839;BME280;68405;47.190;27.558;2023-08-20T12:06:01;99935.64;;;45.11;12.97
78839;BME280;68405;47.190;27.558;2023-08-20T12:08:45;99927.55;;;44.94;13.67
78839;BME280;68405;47.190;27.558;2023-08-20T12:11:17;99926.55;;;43.96;14.36
78839;BME280;68405;47.190;27.558;2023-08-20T12:13:51;99922.75;;;43.00;14.87
78839;BME280;68405;47.190;27.558;2023-08-20T12:16:24;99921.74;;;43.08;14.35
78839;BME280;68405;47.190;27.558;2023-08-20T12:18:56;99915.32;;;43.07;14.35
78839;BME280;68405;47.190;27.558;2023-08-20T12:21:27;99917.14;;;42.95;14.64
78839;BME280;68405;47.190;27.558;2023-08-20T12:23:59;99915.53;;;42.91;15.03
78839;BME280;68405;47.190;27.558;2023-08-20T12:26:31;99915.55;;;43.09;14.32
78839;BME280;68405;47.190;27.558;2023-08-20T12:29:03;99913.98;;;43.13;14.32
78839;BME280;68405;47.190;27.558;2023-08-20T12:31:36;99906.91;;;43.24;14.55
78839;BME280;68405;47.190;27.558;2023-08-20T12:34:07;99906.88;;;43.34;14.31
78839;BME280;68405;47.190;27.558;2023-08-20T12:36:40;99904.16;;;43.30;14.09
78839;BME280;68405;47.190;27.558;2023-08-20T12:39:11;99907.41;;;42.70;14.97
78839;BME280;68405;47.190;27.558;2023-08-20T12:41:44;99904.70;;;42.88;14.85
78839;BME280;68405;47.190;27.558;2023-08-20T12:44:16;99903.70;;;43.07;14.23
78839;BME280;68405;47.190;27.558;2023-08-20T12:46:48;99901.90;;;42.75;14.73
78839;BME280;68405;47.190;27.558;2023-08-20T12:49:20;99901.14;;;42.74;14.95
78839;BME280;68405;47.190;27.558;2023-08-20T12:51:51;99899.27;;;42.72;15.06
78839;BME280;68405;47.190;27.558;2023-08-20T12:54:23;99896.79;;;42.62;14.46
78839;BME280;68405;47.190;27.558;2023-08-20T12:56:55;99895.94;;;42.36;14.84
78839;BME280;68405;47.190;27.558;2023-08-20T12:59:27;99895.88;;;42.22;15.21
78839;BME280;68405;47.190;27.558;2023-08-20T13:01:59;99895.88;;;41.53;15.69
78839;BME280;68405;47.190;27.558;2023-08-20T13:04:32;99892.55;;;40.83;15.99
78839;BME280;68405;47.190;27.558;2023-08-20T13:07:04;99892.33;;;41.04;15.89
78839;BME280;68405;47.190;27.558;2023-08-20T13:09:37;99892.50;;;41.29;15.43
78839;BME280;68405;47.190;27.558;2023-08-20T13:12:11;99892.14;;;40.99;15.90
78839;BME280;68405;47.190;27.558;2023-08-20T13:14:44;99883.19;;;41.03;15.86